Portada
METAR-TAF:

METAR-TAF

Aeropuertos :

Tokio-Haneda, Japón

Aeropuerto Internacional de Haneda

latitud: 35-33N, longitud: 139-47E, altitud: 5 m

Observación

El informe se hizo hace 31 minutos, a las 15:00 UTC
Viento 14 kt del oeste-suroeste
Temperatura 5°C
Humedad 35%
Presión 1007 hPa
Visibilidad 10 km o más
sin nubes por debajo de 1500 m y sin presencia de cumulonimbus.

METAR: RJTT 231500Z 24014KT CAVOK 05/M09 Q1007 NOSIG

Hora: 00:31 (15:31 UTC)

Pronóstico

El informe se hizo hace 4 horas y 25 minutos, a las 11:06 UTC
Pronóstico válido del 23 a las 12 UTC al 24 a las 18 UTC
Viento 8 kt del noroeste
Visibilidad 10 km o más
Escasas nubes a una altura de 3000 ft
Evolucionando progresivamente
del 23 a las 22 UTC al 24 a las 00 UTC
Viento 12 kt del suroeste
Evolucionando progresivamente
del 24 a las 03 UTC al 24 a las 06 UTC
Viento 14 kt del oeste

TAF: RJTT 231106Z 2312/2418 32008KT 9999 FEW030 BECMG 2322/2400 23012KT BECMG 2403/2406 28014KT

Observaciones y pronósticos meteorológicos de más de 4000 aeropuertos (mensajes METAR y TAF).

Los puntos amarillos y rojos representan las estaciones disponibles.

Ponga el ratón en el punto deseado para ver el nombre de la estación.

Haga clic para ver las observaciones y los pronósticos meteorológicos.

Para cambiar el mapa : haga clic en los botones verdes con una cruz de color negro para hacer un zoom, en el botón verde con un guión para alejar o en las flechas verdes para mapas adyacentes.


METAR-TAF: